Time,TemperatureF,DewpointF,PressureIn,WindDirection,WindDirectionDegrees,WindSpeedMPH,WindSpeedGustMPH,Humidity,HourlyPrecipIn,Conditions,Clouds,dailyrainin,SoftwareType,DateUTC
2013-07-01 00:01:00,80.0,47.0,29.93,SSE,156,1.0,6.0,32,0.00,,,0.00,,2013-07-01 07:01:00,
2013-07-01 00:11:00,80.0,47.0,29.93,SSE,156,1.0,6.0,32,0.00,,,0.00,,2013-07-01 07:11:00,
2013-07-01 00:22:00,80.0,47.0,29.93,SW,234,1.0,9.0,31,0.00,,,0.00,,2013-07-01 07:22:00,
2013-07-01 00:33:00,80.0,46.0,29.93,WSW,255,4.0,13.0,30,0.00,,,0.00,,2013-07-01 07:33:00,
2013-07-01 00:43:00,80.0,46.0,29.93,WSW,255,4.0,13.0,30,0.00,,,0.00,,2013-07-01 07:43:00,
2013-07-01 00:53:00,81.0,45.0,29.92,SW,218,8.0,15.0,28,0.00,,,0.00,,2013-07-01 07:53:00,
2013-07-01 01:01:00,81.0,45.0,29.91,WSW,242,7.0,15.0,28,0.00,,,0.00,,2013-07-01 08:01:00,
2013-07-01 01:11:00,81.0,45.0,29.91,WSW,242,7.0,15.0,28,0.00,,,0.00,,2013-07-01 08:11:00,
2013-07-01 01:22:00,80.0,47.0,29.93,West,263,2.0,16.0,31,0.00,,,0.00,,2013-07-01 08:22:00,
2013-07-01 01:32:00,79.0,47.0,29.92,South,178,2.0,4.0,33,0.00,,,0.00,,2013-07-01 08:32:00,
2013-07-01 01:42:00,79.0,47.0,29.92,South,178,2.0,4.0,33,0.00,,,0.00,,2013-07-01 08:42:00,
2013-07-01 01:52:00,78.0,48.0,29.93,SW,231,3.0,6.0,35,0.00,,,0.00,,2013-07-01 08:52:00,
2013-07-01 02:01:00,77.0,48.0,29.92,WSW,253,0.0,4.0,36,0.00,,,0.00,,2013-07-01 09:01:00,
2013-07-01 02:11:00,77.0,48.0,29.92,WSW,253,0.0,4.0,36,0.00,,,0.00,,2013-07-01 09:11:00,
2013-07-01 02:22:00,78.0,48.0,29.92,WSW,254,3.0,5.0,35,0.00,,,0.00,,2013-07-01 09:22:00,
2013-07-01 02:33:00,78.0,48.0,29.91,WSW,254,2.0,5.0,35,0.00,,,0.00,,2013-07-01 09:33:00,
2013-07-01 02:43:00,78.0,48.0,29.91,WSW,254,2.0,5.0,35,0.00,,,0.00,,2013-07-01 09:43:00,
2013-07-01 02:53:00,77.0,47.0,29.90,WSW,254,0.0,4.0,35,0.00,,,0.00,,2013-07-01 09:53:00,
2013-07-01 03:03:00,77.0,48.0,29.89,NNW,345,4.0,5.0,36,0.00,,,0.00,,2013-07-01 10:03:00,
2013-07-01 03:11:00,77.0,48.0,29.89,NNW,345,4.0,5.0,36,0.00,,,0.00,,2013-07-01 10:11:00,
2013-07-01 03:22:00,77.0,49.0,29.90,WNW,294,4.0,7.0,37,0.00,,,0.00,,2013-07-01 10:22:00,
2013-07-01 03:33:00,77.0,49.0,29.90,North,350,5.0,17.0,38,0.00,,,0.00,,2013-07-01 10:33:00,
2013-07-01 03:42:00,77.0,49.0,29.90,North,350,5.0,17.0,38,0.00,,,0.00,,2013-07-01 10:42:00,
2013-07-01 03:52:00,78.0,50.0,29.91,SSE,148,10.0,14.0,37,0.00,,,0.00,,2013-07-01 10:52:00,
2013-07-01 04:02:00,77.0,49.0,29.90,SE,146,9.0,16.0,38,0.00,,,0.00,,2013-07-01 11:02:00,
2013-07-01 04:11:00,77.0,49.0,29.90,SE,146,9.0,16.0,38,0.00,,,0.00,,2013-07-01 11:11:00,
2013-07-01 04:22:00,76.0,50.0,29.91,SSE,157,6.0,14.0,40,0.00,,,0.00,,2013-07-01 11:22:00,
2013-07-01 04:33:00,76.0,51.0,29.91,SW,215,7.0,14.0,42,0.00,,,0.00,,2013-07-01 11:33:00,
2013-07-01 04:43:00,76.0,51.0,29.91,SW,215,7.0,14.0,42,0.00,,,0.00,,2013-07-01 11:43:00,
2013-07-01 04:52:00,76.0,51.0,29.90,South,180,7.0,17.0,41,0.00,,,0.00,,2013-07-01 11:52:00,
2013-07-01 05:01:00,77.0,51.0,29.89,SSE,149,8.0,16.0,40,0.00,,,0.00,,2013-07-01 12:01:00,
2013-07-01 05:11:00,77.0,51.0,29.89,SSE,149,8.0,16.0,40,0.00,,,0.00,,2013-07-01 12:11:00,
2013-07-01 05:21:00,76.0,50.0,29.92,SSW,196,9.0,16.0,40,0.00,,,0.00,,2013-07-01 12:21:00,
2013-07-01 05:33:00,77.0,49.0,29.93,SSW,196,10.0,16.0,38,0.00,,,0.00,,2013-07-01 12:33:00,
2013-07-01 05:43:00,77.0,49.0,29.93,SSW,196,10.0,16.0,38,0.00,,,0.00,,2013-07-01 12:43:00,
2013-07-01 05:53:00,77.0,49.0,29.93,South,190,9.0,14.0,38,0.00,,,0.00,,2013-07-01 12:53:00,
2013-07-01 06:01:00,76.0,49.0,29.94,SSE,167,2.0,10.0,38,0.00,,,0.00,,2013-07-01 13:01:00,
2013-07-01 06:12:00,76.0,49.0,29.94,SSE,167,2.0,10.0,38,0.00,,,0.00,,2013-07-01 13:12:00,
2013-07-01 06:23:00,75.0,49.0,29.95,SE,142,3.0,6.0,40,0.00,,,0.00,,2013-07-01 13:23:00,
2013-07-01 06:33:00,75.0,49.0,29.93,ENE,72,1.0,9.0,40,0.00,,,0.00,,2013-07-01 13:33:00,
2013-07-01 06:43:00,75.0,49.0,29.93,ENE,72,1.0,9.0,40,0.00,,,0.00,,2013-07-01 13:43:00,
2013-07-01 06:53:00,75.0,50.0,29.94,ENE,78,1.0,7.0,41,0.00,,,0.00,,2013-07-01 13:53:00,
2013-07-01 07:01:00,75.0,50.0,29.94,ENE,78,1.0,7.0,41,0.00,,,0.00,,2013-07-01 14:01:00,
2013-07-01 07:11:00,75.0,50.0,29.94,ENE,78,1.0,7.0,41,0.00,,,0.00,,2013-07-01 14:11:00,
2013-07-01 07:22:00,76.0,50.0,29.94,North,360,1.0,9.0,40,0.00,,,0.00,,2013-07-01 14:22:00,
2013-07-01 07:34:00,77.0,49.0,29.95,ESE,117,7.0,10.0,38,0.00,,,0.00,,2013-07-01 14:34:00,
2013-07-01 07:43:00,77.0,49.0,29.95,ESE,117,7.0,10.0,38,0.00,,,0.00,,2013-07-01 14:43:00,
2013-07-01 07:53:00,77.0,48.0,29.97,WSW,245,1.0,12.0,36,0.00,,,0.00,,2013-07-01 14:53:00,
2013-07-01 08:01:00,77.0,49.0,29.97,SE,142,4.0,7.0,37,0.00,,,0.00,,2013-07-01 15:01:00,
2013-07-01 08:11:00,77.0,49.0,29.97,SE,142,4.0,7.0,37,0.00,,,0.00,,2013-07-01 15:11:00,
2013-07-01 08:23:00,79.0,50.0,29.98,WNW,288,0.0,4.0,37,0.00,,,0.00,,2013-07-01 15:23:00,
2013-07-01 08:33:00,80.0,49.0,29.98,NW,323,1.0,4.0,34,0.00,,,0.00,,2013-07-01 15:33:00,
2013-07-01 08:43:00,80.0,49.0,29.98,NW,323,1.0,4.0,34,0.00,,,0.00,,2013-07-01 15:43:00,
2013-07-01 08:52:00,82.0,49.0,29.99,NW,311,0.0,4.0,32,0.00,,,0.00,,2013-07-01 15:52:00,
2013-07-01 09:01:00,84.0,47.0,29.98,NW,304,7.0,10.0,28,0.00,,,0.00,,2013-07-01 16:01:00,
2013-07-01 09:11:00,84.0,47.0,29.98,NW,304,7.0,10.0,28,0.00,,,0.00,,2013-07-01 16:11:00,
2013-07-01 09:22:00,84.0,47.0,29.98,NW,309,12.0,16.0,28,0.00,,,0.00,,2013-07-01 16:22:00,
2013-07-01 09:33:00,85.0,47.0,29.97,WNW,297,12.0,18.0,27,0.00,,,0.00,,2013-07-01 16:33:00,
2013-07-01 09:43:00,85.0,47.0,29.97,WNW,297,12.0,18.0,27,0.00,,,0.00,,2013-07-01 16:43:00,
2013-07-01 09:53:00,86.0,49.0,29.97,South,185,5.0,11.0,28,0.00,,,0.00,,2013-07-01 16:53:00,
2013-07-01 10:02:00,85.0,48.0,29.98,SSW,197,6.0,12.0,28,0.00,,,0.00,,2013-07-01 17:02:00,
2013-07-01 10:12:00,85.0,48.0,29.98,SSW,197,6.0,12.0,28,0.00,,,0.00,,2013-07-01 17:12:00,
2013-07-01 10:23:00,85.0,47.0,29.98,SSE,162,7.0,14.0,27,0.00,,,0.00,,2013-07-01 17:23:00,
2013-07-01 10:33:00,85.0,48.0,29.97,SW,221,10.0,15.0,28,0.00,,,0.00,,2013-07-01 17:33:00,
2013-07-01 10:43:00,85.0,48.0,29.97,SW,221,10.0,15.0,28,0.00,,,0.00,,2013-07-01 17:43:00,
2013-07-01 10:53:00,87.0,47.0,29.97,SW,227,7.0,16.0,25,0.00,,,0.00,,2013-07-01 17:53:00,
2013-07-01 11:02:00,89.0,49.0,29.95,SSE,150,8.0,15.0,25,0.00,,,0.00,,2013-07-01 18:02:00,
2013-07-01 11:11:00,89.0,49.0,29.95,SSE,150,8.0,15.0,25,0.00,,,0.00,,2013-07-01 18:11:00,
2013-07-01 11:22:00,88.0,49.0,29.98,SE,146,8.0,16.0,26,0.00,,,0.00,,2013-07-01 18:22:00,
2013-07-01 11:33:00,90.0,48.0,29.98,SSW,204,11.0,16.0,24,0.00,,,0.00,,2013-07-01 18:33:00,
2013-07-01 11:43:00,90.0,48.0,29.98,SSW,204,11.0,16.0,24,0.00,,,0.00,,2013-07-01 18:43:00,
2013-07-01 11:53:00,90.0,48.0,29.98,SSE,150,9.0,20.0,24,0.00,,,0.00,,2013-07-01 18:53:00,
2013-07-01 12:01:00,91.0,44.0,29.98,SW,234,11.0,22.0,20,0.00,,,0.00,,2013-07-01 19:01:00,
2013-07-01 12:11:00,91.0,44.0,29.98,SW,234,11.0,22.0,20,0.00,,,0.00,,2013-07-01 19:11:00,
2013-07-01 12:33:00,93.0,46.0,29.98,SSE,155,7.0,18.0,20,0.00,,,0.00,,2013-07-01 19:33:00,
2013-07-01 12:44:00,90.0,43.0,29.98,SW,234,10.0,20.0,20,0.00,,,0.00,,2013-07-01 19:44:00,
2013-07-01 12:52:00,91.0,46.0,29.98,SSW,213,15.0,23.0,21,0.00,,,0.00,,2013-07-01 19:52:00,
2013-07-01 13:01:00,92.0,44.0,29.98,SSE,155,15.0,21.0,19,0.00,,,0.00,,2013-07-01 20:01:00,
2013-07-01 13:11:00,92.0,44.0,29.98,SSE,155,15.0,21.0,19,0.00,,,0.00,,2013-07-01 20:11:00,
2013-07-01 13:21:00,92.0,45.0,29.97,SSE,151,12.0,24.0,20,0.00,,,0.00,,2013-07-01 20:21:00,
2013-07-01 13:33:00,90.0,43.0,29.96,SSE,165,10.0,19.0,20,0.00,,,0.00,,2013-07-01 20:33:00,
2013-07-01 13:43:00,90.0,43.0,29.96,SSE,165,10.0,19.0,20,0.00,,,0.00,,2013-07-01 20:43:00,
2013-07-01 13:52:00,90.0,45.0,29.96,SSE,165,17.0,29.0,21,0.00,,,0.00,,2013-07-01 20:52:00,
2013-07-01 14:01:00,89.0,44.0,29.94,SSW,209,15.0,26.0,21,0.00,,,0.00,,2013-07-01 21:01:00,
2013-07-01 14:11:00,89.0,44.0,29.94,SSW,209,15.0,26.0,21,0.00,,,0.00,,2013-07-01 21:11:00,
2013-07-01 14:23:00,88.0,44.0,29.95,South,185,13.0,27.0,22,0.00,,,0.00,,2013-07-01 21:23:00,
2013-07-01 14:34:00,88.0,44.0,29.95,South,185,13.0,27.0,22,0.00,,,0.00,,2013-07-01 21:34:00,
2013-07-01 14:43:00,90.0,45.0,29.95,SSE,165,15.0,25.0,21,0.00,,,0.00,,2013-07-01 21:43:00,
2013-07-01 14:53:00,88.0,44.0,29.95,SSE,159,15.0,30.0,22,0.00,,,0.00,,2013-07-01 21:53:00,
2013-07-01 15:01:00,88.0,46.0,29.96,SSE,165,15.0,31.0,23,0.00,,,0.00,,2013-07-01 22:01:00,
2013-07-01 15:11:00,88.0,46.0,29.96,SSE,165,15.0,31.0,23,0.00,,,0.00,,2013-07-01 22:11:00,
2013-07-01 15:23:00,89.0,45.0,29.94,SW,216,18.0,31.0,22,0.00,,,0.00,,2013-07-01 22:23:00,
2013-07-01 15:32:00,87.0,45.0,29.94,SSW,211,15.0,30.0,23,0.00,,,0.00,,2013-07-01 22:32:00,
2013-07-01 15:42:00,87.0,45.0,29.94,SSW,211,15.0,30.0,23,0.00,,,0.00,,2013-07-01 22:42:00,
2013-07-01 15:53:00,88.0,47.0,29.96,South,172,18.0,32.0,24,0.00,,,0.00,,2013-07-01 22:53:00,
2013-07-01 16:01:00,87.0,45.0,29.94,SSW,206,16.0,33.0,23,0.00,,,0.00,,2013-07-01 23:01:00,
2013-07-01 16:11:00,87.0,45.0,29.94,SSW,206,16.0,33.0,23,0.00,,,0.00,,2013-07-01 23:11:00,
2013-07-01 16:22:00,87.0,42.0,29.95,SSW,198,21.0,31.0,21,0.00,,,0.00,,2013-07-01 23:22:00,
2013-07-01 16:33:00,87.0,42.0,29.95,SSW,198,21.0,31.0,21,0.00,,,0.00,,2013-07-01 23:33:00,
2013-07-01 16:43:00,88.0,42.0,29.95,South,178,19.0,32.0,20,0.00,,,0.00,,2013-07-01 23:43:00,
2013-07-01 16:53:00,88.0,43.0,29.94,SSE,164,13.0,28.0,21,0.00,,,0.00,,2013-07-01 23:53:00,
2013-07-01 17:01:00,87.0,45.0,29.93,SSE,151,16.0,27.0,23,0.00,,,0.00,,2013-07-02 00:01:00,
2013-07-01 17:11:00,87.0,45.0,29.93,SSE,151,16.0,27.0,23,0.00,,,0.00,,2013-07-02 00:11:00,
2013-07-01 17:22:00,86.0,44.0,29.94,SSE,160,16.0,28.0,23,0.00,,,0.00,,2013-07-02 00:22:00,
2013-07-01 17:33:00,87.0,42.0,29.95,SW,233,16.0,29.0,21,0.00,,,0.00,,2013-07-02 00:33:00,
2013-07-01 17:43:00,87.0,42.0,29.95,SW,233,16.0,29.0,21,0.00,,,0.00,,2013-07-02 00:43:00,
2013-07-01 17:53:00,87.0,44.0,29.94,SSW,194,16.0,29.0,22,0.00,,,0.00,,2013-07-02 00:53:00,
2013-07-01 18:01:00,87.0,44.0,29.94,SW,224,15.0,29.0,22,0.00,,,0.00,,2013-07-02 01:01:00,
2013-07-01 18:11:00,87.0,44.0,29.94,SW,224,15.0,29.0,22,0.00,,,0.00,,2013-07-02 01:11:00,
2013-07-01 18:22:00,86.0,43.0,29.94,SSE,162,10.0,25.0,22,0.00,,,0.00,,2013-07-02 01:22:00,
2013-07-01 18:33:00,86.0,40.0,29.92,SW,233,16.0,28.0,20,0.00,,,0.00,,2013-07-02 01:33:00,
2013-07-01 18:43:00,86.0,40.0,29.92,SW,233,16.0,28.0,20,0.00,,,0.00,,2013-07-02 01:43:00,
2013-07-01 18:53:00,86.0,40.0,29.93,South,175,14.0,31.0,20,0.00,,,0.00,,2013-07-02 01:53:00,
2013-07-01 19:01:00,86.0,39.0,29.94,SW,229,14.0,29.0,19,0.00,,,0.00,,2013-07-02 02:01:00,
2013-07-01 19:11:00,86.0,39.0,29.94,SW,229,14.0,29.0,19,0.00,,,0.00,,2013-07-02 02:11:00,
2013-07-01 19:21:00,86.0,43.0,29.95,South,183,14.0,24.0,22,0.00,,,0.00,,2013-07-02 02:21:00,
2013-07-01 19:33:00,85.0,44.0,29.95,SW,220,14.0,27.0,24,0.00,,,0.00,,2013-07-02 02:33:00,
2013-07-01 19:43:00,85.0,44.0,29.95,SW,220,14.0,27.0,24,0.00,,,0.00,,2013-07-02 02:43:00,
2013-07-01 19:53:00,84.0,45.0,29.95,SW,221,11.0,24.0,26,0.00,,,0.00,,2013-07-02 02:53:00,
2013-07-01 20:01:00,83.0,46.0,29.96,South,174,14.0,24.0,27,0.00,,,0.00,,2013-07-02 03:01:00,
2013-07-01 20:11:00,83.0,46.0,29.96,South,174,14.0,24.0,27,0.00,,,0.00,,2013-07-02 03:11:00,
2013-07-01 20:24:00,82.0,44.0,29.96,SW,225,13.0,24.0,26,0.00,,,0.00,,2013-07-02 03:24:00,
2013-07-01 20:32:00,82.0,43.0,29.95,SW,227,13.0,24.0,25,0.00,,,0.00,,2013-07-02 03:32:00,
2013-07-01 20:43:00,82.0,43.0,29.95,SW,227,13.0,24.0,25,0.00,,,0.00,,2013-07-02 03:43:00,
2013-07-01 20:53:00,81.0,41.0,29.96,SW,223,17.0,28.0,24,0.00,,,0.00,,2013-07-02 03:53:00,
2013-07-01 21:01:00,80.0,42.0,29.97,SW,217,17.0,22.0,26,0.00,,,0.00,,2013-07-02 04:01:00,
2013-07-01 21:11:00,80.0,42.0,29.97,SW,217,17.0,22.0,26,0.00,,,0.00,,2013-07-02 04:11:00,
2013-07-01 21:21:00,80.0,44.0,29.97,SSW,213,13.0,25.0,28,0.00,,,0.00,,2013-07-02 04:21:00,
2013-07-01 21:32:00,80.0,44.0,29.97,SSW,213,13.0,25.0,28,0.00,,,0.00,,2013-07-02 04:32:00,
2013-07-01 21:42:00,80.0,44.0,29.97,SSW,213,13.0,25.0,28,0.00,,,0.00,,2013-07-02 04:42:00,
2013-07-01 21:53:00,80.0,44.0,29.97,SSW,213,13.0,25.0,28,0.00,,,0.00,,2013-07-02 04:53:00,
2013-07-01 22:01:00,79.0,46.0,29.97,South,170,13.0,20.0,31,0.00,,,0.00,,2013-07-02 05:01:00,
2013-07-01 22:11:00,78.0,45.0,29.99,South,175,12.0,22.0,31,0.00,,,0.00,,2013-07-02 05:11:00,
2013-07-01 22:22:00,79.0,47.0,29.99,SW,219,14.0,23.0,32,0.00,,,0.00,,2013-07-02 05:22:00,
2013-07-01 22:32:00,78.0,44.0,29.98,SW,217,11.0,17.0,30,0.00,,,0.00,,2013-07-02 05:32:00,
2013-07-01 22:42:00,78.0,44.0,29.98,SW,217,11.0,17.0,30,0.00,,,0.00,,2013-07-02 05:42:00,
2013-07-01 22:52:00,79.0,46.0,29.98,South,190,11.0,17.0,31,0.00,,,0.00,,2013-07-02 05:52:00,
2013-07-01 23:01:00,79.0,46.0,29.98,SW,215,7.0,18.0,31,0.00,,,0.00,,2013-07-02 06:01:00,
2013-07-01 23:11:00,79.0,46.0,29.98,SW,215,7.0,18.0,31,0.00,,,0.00,,2013-07-02 06:11:00,
2013-07-01 23:23:00,78.0,46.0,29.98,SSE,157,10.0,18.0,32,0.00,,,0.00,,2013-07-02 06:23:00,
2013-07-01 23:33:00,78.0,46.0,29.98,South,171,10.0,18.0,32,0.00,,,0.00,,2013-07-02 06:33:00,
2013-07-01 23:43:00,78.0,46.0,29.98,South,171,10.0,18.0,32,0.00,,,0.00,,2013-07-02 06:43:00,
2013-07-01 23:53:00,78.0,46.0,29.99,South,174,11.0,16.0,32,0.00,,,0.00,,2013-07-02 06:53:00,